KMYR/MYR METAR and TAF weather

Enter ICAO airport designator
Station Type Date Time Source
KMYR METAR 2021/05/11 21:56 UTC NOAA

KMYR 112156Z VRB04KT 10SM FEW013 OVC028 22/19 A3006 RMK AO2 SLP180 T02170189


Station Type Date Time Source
KMYR Decoded METAR 2021/05/11 21:56 UTC NOAA

Myrtle Beach Air Force Base, SC, United States (KMYR) 33-41N 078-56W 8M
May 11, 2021 - 05:56 PM EDT / 2021.05.11 2156 UTC
Wind: Variable at 5 MPH (4 KT):0
Visibility: 10 mile(s):0
Sky conditions: overcast
Temperature: 71.1 F (21.7 C)
Dew Point: 66.0 F (18.9 C)
Relative Humidity: 84%
Pressure (altimeter): 30.06 in. Hg (1017 hPa)
ob: KMYR 112156Z VRB04KT 10SM FEW013 OVC028 22/19 A3006 RMK AO2 SLP180 T02170189
cycle: 22

Station Type Date Time Source
KMYR TAF 2021/05/11 19:39 UTC NOAA

TAF
AMD KMYR 111837Z 1119/1218 09009KT P6SM SCT025
FM120300 06005KT P6SM VCSH OVC030
FM120700 06006KT P6SM OVC020
FM120900 05007KT P6SM OVC010
FM121000 05008KT 6SM RA BR OVC009

Example: see airport list